Aviation Digital Data Service (ADDS)

Output produced by METARs form (1825 UTC 02 October 2022)
found at http://www.aviationweather.gov/metar/data/
 
METAR text: VVCT 021800Z 00000KT 9999 FEW013 SCT040 25/25 Q1008 NOSIG
Conditions at: VVCT (CAN THO , VN) observed 1800 UTC 02 October 2022
Temperature: 25.0°C (77°F)
Dewpoint: 25.0°C (77°F) [RH = 100%]
Pressure (altimeter): 29.76 inches Hg (1008.0 mb)
Winds: calm
Visibility: 6 or more miles (10+ km)
Ceiling: at least 12,000 feet AGL
Clouds: few clouds at 1300 feet AGL
scattered clouds at 4000 feet AGL
Weather: no significant weather observed at this time

METAR text: VVCT 021700Z VRB01KT 9999 FEW013 SCT040 24/24 Q1009 NOSIG
Conditions at: VVCT (CAN THO , VN) observed 1700 UTC 02 October 2022
Temperature: 24.0°C (75°F)
Dewpoint: 24.0°C (75°F) [RH = 100%]
Pressure (altimeter): 29.79 inches Hg (1009.0 mb)
Winds: variable direction winds at 1 MPH (1 knots; 0.5 m/s)
Visibility: 6 or more miles (10+ km)
Ceiling: at least 12,000 feet AGL
Clouds: few clouds at 1300 feet AGL
scattered clouds at 4000 feet AGL
Weather: no significant weather observed at this time

METAR text: VVCT 021630Z 25001KT 9999 FEW013 SCT040 24/24 Q1009 NOSIG
Conditions at: VVCT (CAN THO , VN) observed 1630 UTC 02 October 2022
Temperature: 24.0°C (75°F)
Dewpoint: 24.0°C (75°F) [RH = 100%]
Pressure (altimeter): 29.79 inches Hg (1009.0 mb)
Winds: from the WSW (250 degrees) at 1 MPH (1 knots; 0.5 m/s)
Visibility: 6 or more miles (10+ km)
Ceiling: at least 12,000 feet AGL
Clouds: few clouds at 1300 feet AGL
scattered clouds at 4000 feet AGL
Weather: no significant weather observed at this time

METAR text: VVCT 021600Z 00000KT 9999 FEW013 BKN050 24/24 Q1009 NOSIG
Conditions at: VVCT (CAN THO , VN) observed 1600 UTC 02 October 2022
Temperature: 24.0°C (75°F)
Dewpoint: 24.0°C (75°F) [RH = 100%]
Pressure (altimeter): 29.79 inches Hg (1009.0 mb)
Winds: calm
Visibility: 6 or more miles (10+ km)
Ceiling: 5000 feet AGL
Clouds: few clouds at 1300 feet AGL
broken clouds at 5000 feet AGL
Weather: no significant weather observed at this time

METAR text: VVCT 021530Z 36001KT 9999 FEW013 BKN050 24/24 Q1009 NOSIG
Conditions at: VVCT (CAN THO , VN) observed 1530 UTC 02 October 2022
Temperature: 24.0°C (75°F)
Dewpoint: 24.0°C (75°F) [RH = 100%]
Pressure (altimeter): 29.79 inches Hg (1009.0 mb)
Winds: from the N (360 degrees) at 1 MPH (1 knots; 0.5 m/s)
Visibility: 6 or more miles (10+ km)
Ceiling: 5000 feet AGL
Clouds: few clouds at 1300 feet AGL
broken clouds at 5000 feet AGL
Weather: no significant weather observed at this time

METAR text: VVCT 021500Z 02001KT 9999 FEW013 BKN050 24/24 Q1009 NOSIG
Conditions at: VVCT (CAN THO , VN) observed 1500 UTC 02 October 2022
Temperature: 24.0°C (75°F)
Dewpoint: 24.0°C (75°F) [RH = 100%]
Pressure (altimeter): 29.79 inches Hg (1009.0 mb)
Winds: from the NNE (20 degrees) at 1 MPH (1 knots; 0.5 m/s)
Visibility: 6 or more miles (10+ km)
Ceiling: 5000 feet AGL
Clouds: few clouds at 1300 feet AGL
broken clouds at 5000 feet AGL
Weather: no significant weather observed at this time

METAR text: VVCT 021430Z 00000KT 9999 FEW013 BKN050 24/24 Q1010 NOSIG
Conditions at: VVCT (CAN THO , VN) observed 1430 UTC 02 October 2022
Temperature: 24.0°C (75°F)
Dewpoint: 24.0°C (75°F) [RH = 100%]
Pressure (altimeter): 29.82 inches Hg (1010.0 mb)
Winds: calm
Visibility: 6 or more miles (10+ km)
Ceiling: 5000 feet AGL
Clouds: few clouds at 1300 feet AGL
broken clouds at 5000 feet AGL
Weather: no significant weather observed at this time

METAR text: VVCT 021400Z 00000KT 9999 FEW013 BKN050 24/24 Q1010 NOSIG
Conditions at: VVCT (CAN THO , VN) observed 1400 UTC 02 October 2022
Temperature: 24.0°C (75°F)
Dewpoint: 24.0°C (75°F) [RH = 100%]
Pressure (altimeter): 29.82 inches Hg (1010.0 mb)
Winds: calm
Visibility: 6 or more miles (10+ km)
Ceiling: 5000 feet AGL
Clouds: few clouds at 1300 feet AGL
broken clouds at 5000 feet AGL
Weather: no significant weather observed at this time

METAR text: VVCT 021330Z 00000KT 9999 FEW013 FEW015CB BKN050 24/24 Q1009 NOSIG CB/SW
Conditions at: VVCT (CAN THO , VN) observed 1330 UTC 02 October 2022
Temperature: 24.0°C (75°F)
Dewpoint: 24.0°C (75°F) [RH = 100%]
Pressure (altimeter): 29.79 inches Hg (1009.0 mb)
Winds: calm
Visibility: 6 or more miles (10+ km)
Ceiling: 5000 feet AGL
Clouds: few clouds at 1300 feet AGL
few clouds at 1500 feet AGL
broken clouds at 5000 feet AGL
Weather: no significant weather observed at this time

METAR text: VVCT 021300Z 00000KT 9999 FEW013 FEW015CB BKN050 25/25 Q1009 NOSIG CB/SW
Conditions at: VVCT (CAN THO , VN) observed 1300 UTC 02 October 2022
Temperature: 25.0°C (77°F)
Dewpoint: 25.0°C (77°F) [RH = 100%]
Pressure (altimeter): 29.79 inches Hg (1009.0 mb)
Winds: calm
Visibility: 6 or more miles (10+ km)
Ceiling: 5000 feet AGL
Clouds: few clouds at 1300 feet AGL
few clouds at 1500 feet AGL
broken clouds at 5000 feet AGL
Weather: no significant weather observed at this time

METAR text: VVCT 021230Z VRB01KT 9999 FEW013 FEW015CB BKN050 25/24 Q1008 NOSIG CB/SW
Conditions at: VVCT (CAN THO , VN) observed 1230 UTC 02 October 2022
Temperature: 25.0°C (77°F)
Dewpoint: 24.0°C (75°F) [RH = 94%]
Pressure (altimeter): 29.76 inches Hg (1008.0 mb)
Winds: variable direction winds at 1 MPH (1 knots; 0.5 m/s)
Visibility: 6 or more miles (10+ km)
Ceiling: 5000 feet AGL
Clouds: few clouds at 1300 feet AGL
few clouds at 1500 feet AGL
broken clouds at 5000 feet AGL
Weather: no significant weather observed at this time

METAR text: VVCT 021200Z 16006KT 9999 FEW013 FEW015CB BKN050 25/24 Q1008 NOSIG CB/SW
Conditions at: VVCT (CAN THO , VN) observed 1200 UTC 02 October 2022
Temperature: 25.0°C (77°F)
Dewpoint: 24.0°C (75°F) [RH = 94%]
Pressure (altimeter): 29.76 inches Hg (1008.0 mb)
Winds: from the SSE (160 degrees) at 7 MPH (6 knots; 3.1 m/s)
Visibility: 6 or more miles (10+ km)
Ceiling: 5000 feet AGL
Clouds: few clouds at 1300 feet AGL
few clouds at 1500 feet AGL
broken clouds at 5000 feet AGL
Weather: no significant weather observed at this time

METAR text: VVCT 021130Z VRB01KT 9999 SCT015 FEW017CB BKN050 26/26 Q1007 NOSIG CB/S
Conditions at: VVCT (CAN THO , VN) observed 1130 UTC 02 October 2022
Temperature: 26.0°C (79°F)
Dewpoint: 26.0°C (79°F) [RH = 100%]
Pressure (altimeter): 29.73 inches Hg (1007.0 mb)
Winds: variable direction winds at 1 MPH (1 knots; 0.5 m/s)
Visibility: 6 or more miles (10+ km)
Ceiling: 5000 feet AGL
Clouds: scattered clouds at 1500 feet AGL
few clouds at 1700 feet AGL
broken clouds at 5000 feet AGL
Weather: no significant weather observed at this time

METAR text: VVCT 021100Z VRB01KT 9999 SCT015 FEW017TCU BKN050 26/25 Q1007 NOSIG TCU/N
Conditions at: VVCT (CAN THO , VN) observed 1100 UTC 02 October 2022
Temperature: 26.0°C (79°F)
Dewpoint: 25.0°C (77°F) [RH = 94%]
Pressure (altimeter): 29.73 inches Hg (1007.0 mb)
Winds: variable direction winds at 1 MPH (1 knots; 0.5 m/s)
Visibility: 6 or more miles (10+ km)
Ceiling: 5000 feet AGL
Clouds: scattered clouds at 1500 feet AGL
few clouds at 1700 feet AGL
broken clouds at 5000 feet AGL
Weather: no significant weather observed at this time

METAR text: VVCT 021030Z VRB01KT 9999 SCT015 FEW017TCU BKN050 27/25 Q1006 NOSIG TCU/SE
Conditions at: VVCT (CAN THO , VN) observed 1030 UTC 02 October 2022
Temperature: 27.0°C (81°F)
Dewpoint: 25.0°C (77°F) [RH = 89%]
Pressure (altimeter): 29.70 inches Hg (1006.0 mb)
Winds: variable direction winds at 1 MPH (1 knots; 0.5 m/s)
Visibility: 6 or more miles (10+ km)
Ceiling: 5000 feet AGL
Clouds: scattered clouds at 1500 feet AGL
few clouds at 1700 feet AGL
broken clouds at 5000 feet AGL
Weather: no significant weather observed at this time

METAR text: VVCT 021000Z 00000KT 9999 SCT013 FEW015TCU BKN050 27/25 Q1006 NOSIG TCU/SE
Conditions at: VVCT (CAN THO , VN) observed 1000 UTC 02 October 2022
Temperature: 27.0°C (81°F)
Dewpoint: 25.0°C (77°F) [RH = 89%]
Pressure (altimeter): 29.70 inches Hg (1006.0 mb)
Winds: calm
Visibility: 6 or more miles (10+ km)
Ceiling: 5000 feet AGL
Clouds: scattered clouds at 1300 feet AGL
few clouds at 1500 feet AGL
broken clouds at 5000 feet AGL
Weather: no significant weather observed at this time

METAR text: VVCT 020930Z 26002KT 9999 SCT013 FEW015TCU BKN050 27/25 Q1006 NOSIG TCU/NW
Conditions at: VVCT (CAN THO , VN) observed 0930 UTC 02 October 2022
Temperature: 27.0°C (81°F)
Dewpoint: 25.0°C (77°F) [RH = 89%]
Pressure (altimeter): 29.70 inches Hg (1006.0 mb)
Winds: from the W (260 degrees) at 2 MPH (2 knots; 1.0 m/s)
Visibility: 6 or more miles (10+ km)
Ceiling: 5000 feet AGL
Clouds: scattered clouds at 1300 feet AGL
few clouds at 1500 feet AGL
broken clouds at 5000 feet AGL
Weather: no significant weather observed at this time

METAR text: VVCT 020900Z VRB02KT 9999 SCT013 FEW015TCU BKN050 28/25 Q1006 NOSIG TCU/OVER RWY
Conditions at: VVCT (CAN THO , VN) observed 0900 UTC 02 October 2022
Temperature: 28.0°C (82°F)
Dewpoint: 25.0°C (77°F) [RH = 84%]
Pressure (altimeter): 29.70 inches Hg (1006.0 mb)
Winds: variable direction winds at 2 MPH (2 knots; 1.0 m/s)
Visibility: 6 or more miles (10+ km)
Ceiling: 5000 feet AGL
Clouds: scattered clouds at 1300 feet AGL
few clouds at 1500 feet AGL
broken clouds at 5000 feet AGL
Weather: no significant weather observed at this time

METAR text: VVCT 020830Z VRB03KT 9999 FEW015 BKN050 28/25 Q1006 NOSIG
Conditions at: VVCT (CAN THO , VN) observed 0830 UTC 02 October 2022
Temperature: 28.0°C (82°F)
Dewpoint: 25.0°C (77°F) [RH = 84%]
Pressure (altimeter): 29.70 inches Hg (1006.0 mb)
Winds: variable direction winds at 3 MPH (3 knots; 1.5 m/s)
Visibility: 6 or more miles (10+ km)
Ceiling: 5000 feet AGL
Clouds: few clouds at 1500 feet AGL
broken clouds at 5000 feet AGL
Weather: no significant weather observed at this time

METAR text: VVCT 020800Z 04002KT 9999 FEW015 BKN050 28/25 Q1006 NOSIG
Conditions at: VVCT (CAN THO , VN) observed 0800 UTC 02 October 2022
Temperature: 28.0°C (82°F)
Dewpoint: 25.0°C (77°F) [RH = 84%]
Pressure (altimeter): 29.70 inches Hg (1006.0 mb)
Winds: from the NE (40 degrees) at 2 MPH (2 knots; 1.0 m/s)
Visibility: 6 or more miles (10+ km)
Ceiling: 5000 feet AGL
Clouds: few clouds at 1500 feet AGL
broken clouds at 5000 feet AGL
Weather: no significant weather observed at this time

METAR text: VVCT 020730Z VRB03KT 9999 FEW015 BKN050 27/25 Q1006 NOSIG
Conditions at: VVCT (CAN THO , VN) observed 0730 UTC 02 October 2022
Temperature: 27.0°C (81°F)
Dewpoint: 25.0°C (77°F) [RH = 89%]
Pressure (altimeter): 29.70 inches Hg (1006.0 mb)
Winds: variable direction winds at 3 MPH (3 knots; 1.5 m/s)
Visibility: 6 or more miles (10+ km)
Ceiling: 5000 feet AGL
Clouds: few clouds at 1500 feet AGL
broken clouds at 5000 feet AGL
Weather: no significant weather observed at this time

METAR text: VVCT 020700Z VRB02KT 9999 SCT013 FEW015CB BKN050 27/25 Q1007 NOSIG CB/N
Conditions at: VVCT (CAN THO , VN) observed 0700 UTC 02 October 2022
Temperature: 27.0°C (81°F)
Dewpoint: 25.0°C (77°F) [RH = 89%]
Pressure (altimeter): 29.73 inches Hg (1007.0 mb)
Winds: variable direction winds at 2 MPH (2 knots; 1.0 m/s)
Visibility: 6 or more miles (10+ km)
Ceiling: 5000 feet AGL
Clouds: scattered clouds at 1300 feet AGL
few clouds at 1500 feet AGL
broken clouds at 5000 feet AGL
Weather: no significant weather observed at this time

METAR text: VVCT 020630Z VRB01KT 9999 SCT013 FEW015CB BKN050 26/25 Q1007 NOSIG CB/N
Conditions at: VVCT (CAN THO , VN) observed 0630 UTC 02 October 2022
Temperature: 26.0°C (79°F)
Dewpoint: 25.0°C (77°F) [RH = 94%]
Pressure (altimeter): 29.73 inches Hg (1007.0 mb)
Winds: variable direction winds at 1 MPH (1 knots; 0.5 m/s)
Visibility: 6 or more miles (10+ km)
Ceiling: 5000 feet AGL
Clouds: scattered clouds at 1300 feet AGL
few clouds at 1500 feet AGL
broken clouds at 5000 feet AGL
Weather: no significant weather observed at this time

METAR text: VVCT 020600Z VRB02KT 9999 SCT013 FEW015CB BKN050 25/25 Q1008 NOSIG CB/N
Conditions at: VVCT (CAN THO , VN) observed 0600 UTC 02 October 2022
Temperature: 25.0°C (77°F)
Dewpoint: 25.0°C (77°F) [RH = 100%]
Pressure (altimeter): 29.76 inches Hg (1008.0 mb)
Winds: variable direction winds at 2 MPH (2 knots; 1.0 m/s)
Visibility: 6 or more miles (10+ km)
Ceiling: 5000 feet AGL
Clouds: scattered clouds at 1300 feet AGL
few clouds at 1500 feet AGL
broken clouds at 5000 feet AGL
Weather: no significant weather observed at this time

METAR text: VVCT 020530Z VRB01KT 5000 SHRA BKN013 FEW015CB 24/24 Q1009 NOSIG CB/NE/NW
Conditions at: VVCT (CAN THO , VN) observed 0530 UTC 02 October 2022
Temperature: 24.0°C (75°F)
Dewpoint: 24.0°C (75°F) [RH = 100%]
Pressure (altimeter): 29.79 inches Hg (1009.0 mb)
Winds: variable direction winds at 1 MPH (1 knots; 0.5 m/s)
Visibility: 3 miles ( 5 km)
Ceiling: 1300 feet AGL
Clouds: broken clouds at 1300 feet AGL
few clouds at 1500 feet AGL
Weather: SHRA  (rain showers)

METAR text: VVCT 020500Z 14009KT 6000 -SHRA BKN013 FEW015CB 27/24 Q1009 TEMPO TL0515 3000 TSRA CB/SE/OVER RWY
Conditions at: VVCT (CAN THO , VN) observed 0500 UTC 02 October 2022
Temperature: 27.0°C (81°F)
Dewpoint: 24.0°C (75°F) [RH = 84%]
Pressure (altimeter): 29.79 inches Hg (1009.0 mb)
Winds: from the SE (140 degrees) at 10 MPH (9 knots; 4.6 m/s)
Visibility: 4 miles ( 6 km)
Ceiling: 1300 feet AGL
Clouds: broken clouds at 1300 feet AGL
few clouds at 1500 feet AGL
Weather: -SHRA  (light rain showers)

METAR text: VVCT 020430Z VRB01KT 9999 BKN015 FEW017CB 29/24 Q1009 NOSIG CB/E/NE
Conditions at: VVCT (CAN THO , VN) observed 0430 UTC 02 October 2022
Temperature: 29.0°C (84°F)
Dewpoint: 24.0°C (75°F) [RH = 74%]
Pressure (altimeter): 29.79 inches Hg (1009.0 mb)
Winds: variable direction winds at 1 MPH (1 knots; 0.5 m/s)
Visibility: 6 or more miles (10+ km)
Ceiling: 1500 feet AGL
Clouds: broken clouds at 1500 feet AGL
few clouds at 1700 feet AGL
Weather: no significant weather observed at this time

METAR text: VVCT 020400Z VRB02KT 9999 BKN015 FEW017TCU 30/25 Q1009 NOSIG TCU/N
Conditions at: VVCT (CAN THO , VN) observed 0400 UTC 02 October 2022
Temperature: 30.0°C (86°F)
Dewpoint: 25.0°C (77°F) [RH = 75%]
Pressure (altimeter): 29.79 inches Hg (1009.0 mb)
Winds: variable direction winds at 2 MPH (2 knots; 1.0 m/s)
Visibility: 6 or more miles (10+ km)
Ceiling: 1500 feet AGL
Clouds: broken clouds at 1500 feet AGL
few clouds at 1700 feet AGL
Weather: no significant weather observed at this time

METAR text: VVCT 020330Z VRB02KT 9999 BKN015 29/25 Q1009 NOSIG
Conditions at: VVCT (CAN THO , VN) observed 0330 UTC 02 October 2022
Temperature: 29.0°C (84°F)
Dewpoint: 25.0°C (77°F) [RH = 79%]
Pressure (altimeter): 29.79 inches Hg (1009.0 mb)
Winds: variable direction winds at 2 MPH (2 knots; 1.0 m/s)
Visibility: 6 or more miles (10+ km)
Ceiling: 1500 feet AGL
Clouds: broken clouds at 1500 feet AGL
Weather: no significant weather observed at this time

METAR text: VVCT 020300Z 22004KT 9999 SCT015 SCT050 29/25 Q1010 NOSIG
Conditions at: VVCT (CAN THO , VN) observed 0300 UTC 02 October 2022
Temperature: 29.0°C (84°F)
Dewpoint: 25.0°C (77°F) [RH = 79%]
Pressure (altimeter): 29.82 inches Hg (1010.0 mb)
Winds: from the SW (220 degrees) at 5 MPH (4 knots; 2.1 m/s)
Visibility: 6 or more miles (10+ km)
Ceiling: at least 12,000 feet AGL
Clouds: scattered clouds at 1500 feet AGL
scattered clouds at 5000 feet AGL
Weather: no significant weather observed at this time

METAR text: VVCT 020230Z VRB01KT 9999 SCT015 BKN050 28/25 Q1010 NOSIG
Conditions at: VVCT (CAN THO , VN) observed 0230 UTC 02 October 2022
Temperature: 28.0°C (82°F)
Dewpoint: 25.0°C (77°F) [RH = 84%]
Pressure (altimeter): 29.82 inches Hg (1010.0 mb)
Winds: variable direction winds at 1 MPH (1 knots; 0.5 m/s)
Visibility: 6 or more miles (10+ km)
Ceiling: 5000 feet AGL
Clouds: scattered clouds at 1500 feet AGL
broken clouds at 5000 feet AGL
Weather: no significant weather observed at this time

METAR text: VVCT 020200Z VRB01KT 9999 SCT015 BKN050 28/25 Q1010 NOSIG
Conditions at: VVCT (CAN THO , VN) observed 0200 UTC 02 October 2022
Temperature: 28.0°C (82°F)
Dewpoint: 25.0°C (77°F) [RH = 84%]
Pressure (altimeter): 29.82 inches Hg (1010.0 mb)
Winds: variable direction winds at 1 MPH (1 knots; 0.5 m/s)
Visibility: 6 or more miles (10+ km)
Ceiling: 5000 feet AGL
Clouds: scattered clouds at 1500 feet AGL
broken clouds at 5000 feet AGL
Weather: no significant weather observed at this time

METAR text: VVCT 020130Z VRB01KT 9999 SCT015 BKN050 28/26 Q1010 NOSIG
Conditions at: VVCT (CAN THO , VN) observed 0130 UTC 02 October 2022
Temperature: 28.0°C (82°F)
Dewpoint: 26.0°C (79°F) [RH = 89%]
Pressure (altimeter): 29.82 inches Hg (1010.0 mb)
Winds: variable direction winds at 1 MPH (1 knots; 0.5 m/s)
Visibility: 6 or more miles (10+ km)
Ceiling: 5000 feet AGL
Clouds: scattered clouds at 1500 feet AGL
broken clouds at 5000 feet AGL
Weather: no significant weather observed at this time

METAR text: VVCT 020100Z VRB01KT 9999 FEW015 BKN050 27/26 Q1009 NOSIG
Conditions at: VVCT (CAN THO , VN) observed 0100 UTC 02 October 2022
Temperature: 27.0°C (81°F)
Dewpoint: 26.0°C (79°F) [RH = 94%]
Pressure (altimeter): 29.79 inches Hg (1009.0 mb)
Winds: variable direction winds at 1 MPH (1 knots; 0.5 m/s)
Visibility: 6 or more miles (10+ km)
Ceiling: 5000 feet AGL
Clouds: few clouds at 1500 feet AGL
broken clouds at 5000 feet AGL
Weather: no significant weather observed at this time

METAR text: VVCT 020030Z VRB02KT 6000 FEW015 BKN050 27/26 Q1009 NOSIG
Conditions at: VVCT (CAN THO , VN) observed 0030 UTC 02 October 2022
Temperature: 27.0°C (81°F)
Dewpoint: 26.0°C (79°F) [RH = 94%]
Pressure (altimeter): 29.79 inches Hg (1009.0 mb)
Winds: variable direction winds at 2 MPH (2 knots; 1.0 m/s)
Visibility: 4 miles ( 6 km)
Ceiling: 5000 feet AGL
Clouds: few clouds at 1500 feet AGL
broken clouds at 5000 feet AGL
Weather: no significant weather observed at this time

METAR text: VVCT 020000Z VRB02KT 6000 FEW015 BKN050 26/25 Q1009 NOSIG
Conditions at: VVCT (CAN THO , VN) observed 0000 UTC 02 October 2022
Temperature: 26.0°C (79°F)
Dewpoint: 25.0°C (77°F) [RH = 94%]
Pressure (altimeter): 29.79 inches Hg (1009.0 mb)
Winds: variable direction winds at 2 MPH (2 knots; 1.0 m/s)
Visibility: 4 miles ( 6 km)
Ceiling: 5000 feet AGL
Clouds: few clouds at 1500 feet AGL
broken clouds at 5000 feet AGL
Weather: no significant weather observed at this time

METAR text: VVCT 012330Z VRB02KT 8000 FEW015 BKN050 26/25 Q1009 NOSIG
Conditions at: VVCT (CAN THO , VN) observed 2330 UTC 01 October 2022
Temperature: 26.0°C (79°F)
Dewpoint: 25.0°C (77°F) [RH = 94%]
Pressure (altimeter): 29.79 inches Hg (1009.0 mb)
Winds: variable direction winds at 2 MPH (2 knots; 1.0 m/s)
Visibility: 5 miles ( 8 km)
Ceiling: 5000 feet AGL
Clouds: few clouds at 1500 feet AGL
broken clouds at 5000 feet AGL
Weather: no significant weather observed at this time

METAR text: VVCT 012300Z 14002KT 9999 FEW015 BKN050 25/25 Q1008 NOSIG
Conditions at: VVCT (CAN THO , VN) observed 2300 UTC 01 October 2022
Temperature: 25.0°C (77°F)
Dewpoint: 25.0°C (77°F) [RH = 100%]
Pressure (altimeter): 29.76 inches Hg (1008.0 mb)
Winds: from the SE (140 degrees) at 2 MPH (2 knots; 1.0 m/s)
Visibility: 6 or more miles (10+ km)
Ceiling: 5000 feet AGL
Clouds: few clouds at 1500 feet AGL
broken clouds at 5000 feet AGL
Weather: no significant weather observed at this time

METAR text: VVCT 012230Z 15001KT 9999 FEW015 BKN050 25/25 Q1008 NOSIG
Conditions at: VVCT (CAN THO , VN) observed 2230 UTC 01 October 2022
Temperature: 25.0°C (77°F)
Dewpoint: 25.0°C (77°F) [RH = 100%]
Pressure (altimeter): 29.76 inches Hg (1008.0 mb)
Winds: from the SSE (150 degrees) at 1 MPH (1 knots; 0.5 m/s)
Visibility: 6 or more miles (10+ km)
Ceiling: 5000 feet AGL
Clouds: few clouds at 1500 feet AGL
broken clouds at 5000 feet AGL
Weather: no significant weather observed at this time

METAR text: VVCT 012200Z 14002KT 9999 FEW015 BKN050 25/25 Q1007 NOSIG
Conditions at: VVCT (CAN THO , VN) observed 2200 UTC 01 October 2022
Temperature: 25.0°C (77°F)
Dewpoint: 25.0°C (77°F) [RH = 100%]
Pressure (altimeter): 29.73 inches Hg (1007.0 mb)
Winds: from the SE (140 degrees) at 2 MPH (2 knots; 1.0 m/s)
Visibility: 6 or more miles (10+ km)
Ceiling: 5000 feet AGL
Clouds: few clouds at 1500 feet AGL
broken clouds at 5000 feet AGL
Weather: no significant weather observed at this time

METAR text: VVCT 012130Z 13001KT 9999 FEW015 BKN050 25/25 Q1007 NOSIG
Conditions at: VVCT (CAN THO , VN) observed 2130 UTC 01 October 2022
Temperature: 25.0°C (77°F)
Dewpoint: 25.0°C (77°F) [RH = 100%]
Pressure (altimeter): 29.73 inches Hg (1007.0 mb)
Winds: from the SE (130 degrees) at 1 MPH (1 knots; 0.5 m/s)
Visibility: 6 or more miles (10+ km)
Ceiling: 5000 feet AGL
Clouds: few clouds at 1500 feet AGL
broken clouds at 5000 feet AGL
Weather: no significant weather observed at this time

METAR text: VVCT 012100Z VRB01KT 9999 FEW015 BKN050 25/25 Q1007 NOSIG
Conditions at: VVCT (CAN THO , VN) observed 2100 UTC 01 October 2022
Temperature: 25.0°C (77°F)
Dewpoint: 25.0°C (77°F) [RH = 100%]
Pressure (altimeter): 29.73 inches Hg (1007.0 mb)
Winds: variable direction winds at 1 MPH (1 knots; 0.5 m/s)
Visibility: 6 or more miles (10+ km)
Ceiling: 5000 feet AGL
Clouds: few clouds at 1500 feet AGL
broken clouds at 5000 feet AGL
Weather: no significant weather observed at this time

METAR text: VVCT 012030Z VRB01KT 9999 FEW015 BKN050 25/25 Q1007 NOSIG
Conditions at: VVCT (CAN THO , VN) observed 2030 UTC 01 October 2022
Temperature: 25.0°C (77°F)
Dewpoint: 25.0°C (77°F) [RH = 100%]
Pressure (altimeter): 29.73 inches Hg (1007.0 mb)
Winds: variable direction winds at 1 MPH (1 knots; 0.5 m/s)
Visibility: 6 or more miles (10+ km)
Ceiling: 5000 feet AGL
Clouds: few clouds at 1500 feet AGL
broken clouds at 5000 feet AGL
Weather: no significant weather observed at this time

METAR text: VVCT 012000Z 19002KT 9999 FEW015 BKN050 25/25 Q1008 NOSIG
Conditions at: VVCT (CAN THO , VN) observed 2000 UTC 01 October 2022
Temperature: 25.0°C (77°F)
Dewpoint: 25.0°C (77°F) [RH = 100%]
Pressure (altimeter): 29.76 inches Hg (1008.0 mb)
Winds: from the S (190 degrees) at 2 MPH (2 knots; 1.0 m/s)
Visibility: 6 or more miles (10+ km)
Ceiling: 5000 feet AGL
Clouds: few clouds at 1500 feet AGL
broken clouds at 5000 feet AGL
Weather: no significant weather observed at this time

METAR text: VVCT 011930Z 19002KT 9999 FEW015 BKN050 25/25 Q1008 NOSIG
Conditions at: VVCT (CAN THO , VN) observed 1930 UTC 01 October 2022
Temperature: 25.0°C (77°F)
Dewpoint: 25.0°C (77°F) [RH = 100%]
Pressure (altimeter): 29.76 inches Hg (1008.0 mb)
Winds: from the S (190 degrees) at 2 MPH (2 knots; 1.0 m/s)
Visibility: 6 or more miles (10+ km)
Ceiling: 5000 feet AGL
Clouds: few clouds at 1500 feet AGL
broken clouds at 5000 feet AGL
Weather: no significant weather observed at this time

METAR text: VVCT 011900Z 00000KT 9999 FEW015 BKN050 25/25 Q1008 NOSIG
Conditions at: VVCT (CAN THO , VN) observed 1900 UTC 01 October 2022
Temperature: 25.0°C (77°F)
Dewpoint: 25.0°C (77°F) [RH = 100%]
Pressure (altimeter): 29.76 inches Hg (1008.0 mb)
Winds: calm
Visibility: 6 or more miles (10+ km)
Ceiling: 5000 feet AGL
Clouds: few clouds at 1500 feet AGL
broken clouds at 5000 feet AGL
Weather: no significant weather observed at this time

METAR text: VVCT 011830Z VRB02KT 9999 FEW015 BKN050 26/25 Q1008 NOSIG
Conditions at: VVCT (CAN THO , VN) observed 1830 UTC 01 October 2022
Temperature: 26.0°C (79°F)
Dewpoint: 25.0°C (77°F) [RH = 94%]
Pressure (altimeter): 29.76 inches Hg (1008.0 mb)
Winds: variable direction winds at 2 MPH (2 knots; 1.0 m/s)
Visibility: 6 or more miles (10+ km)
Ceiling: 5000 feet AGL
Clouds: few clouds at 1500 feet AGL
broken clouds at 5000 feet AGL
Weather: no significant weather observed at this time

METAR text: VVCT 011800Z 14002KT 9999 FEW015 BKN050 26/25 Q1008 NOSIG
Conditions at: VVCT (CAN THO , VN) observed 1800 UTC 01 October 2022
Temperature: 26.0°C (79°F)
Dewpoint: 25.0°C (77°F) [RH = 94%]
Pressure (altimeter): 29.76 inches Hg (1008.0 mb)
Winds: from the SE (140 degrees) at 2 MPH (2 knots; 1.0 m/s)
Visibility: 6 or more miles (10+ km)
Ceiling: 5000 feet AGL
Clouds: few clouds at 1500 feet AGL
broken clouds at 5000 feet AGL
Weather: no significant weather observed at this time

METAR text: VVCT 011730Z VRB01KT 9999 FEW015 BKN050 26/25 Q1009 NOSIG
Conditions at: VVCT (CAN THO , VN) observed 1730 UTC 01 October 2022
Temperature: 26.0°C (79°F)
Dewpoint: 25.0°C (77°F) [RH = 94%]
Pressure (altimeter): 29.79 inches Hg (1009.0 mb)
Winds: variable direction winds at 1 MPH (1 knots; 0.5 m/s)
Visibility: 6 or more miles (10+ km)
Ceiling: 5000 feet AGL
Clouds: few clouds at 1500 feet AGL
broken clouds at 5000 feet AGL
Weather: no significant weather observed at this time

METAR text: VVCT 011700Z VRB01KT 9999 SCT015 FEW017CB BKN050 26/25 Q1009 NOSIG CB/NE
Conditions at: VVCT (CAN THO , VN) observed 1700 UTC 01 October 2022
Temperature: 26.0°C (79°F)
Dewpoint: 25.0°C (77°F) [RH = 94%]
Pressure (altimeter): 29.79 inches Hg (1009.0 mb)
Winds: variable direction winds at 1 MPH (1 knots; 0.5 m/s)
Visibility: 6 or more miles (10+ km)
Ceiling: 5000 feet AGL
Clouds: scattered clouds at 1500 feet AGL
few clouds at 1700 feet AGL
broken clouds at 5000 feet AGL
Weather: no significant weather observed at this time

METAR text: VVCT 011630Z 00000KT 9999 SCT015 FEW017CB BKN050 26/25 Q1010 NOSIG CB/NE
Conditions at: VVCT (CAN THO , VN) observed 1630 UTC 01 October 2022
Temperature: 26.0°C (79°F)
Dewpoint: 25.0°C (77°F) [RH = 94%]
Pressure (altimeter): 29.82 inches Hg (1010.0 mb)
Winds: calm
Visibility: 6 or more miles (10+ km)
Ceiling: 5000 feet AGL
Clouds: scattered clouds at 1500 feet AGL
few clouds at 1700 feet AGL
broken clouds at 5000 feet AGL
Weather: no significant weather observed at this time

METAR text: VVCT 011600Z VRB01KT 9999 SCT015 FEW017CB BKN050 26/25 Q1010 NOSIG CB/NE
Conditions at: VVCT (CAN THO , VN) observed 1600 UTC 01 October 2022
Temperature: 26.0°C (79°F)
Dewpoint: 25.0°C (77°F) [RH = 94%]
Pressure (altimeter): 29.82 inches Hg (1010.0 mb)
Winds: variable direction winds at 1 MPH (1 knots; 0.5 m/s)
Visibility: 6 or more miles (10+ km)
Ceiling: 5000 feet AGL
Clouds: scattered clouds at 1500 feet AGL
few clouds at 1700 feet AGL
broken clouds at 5000 feet AGL
Weather: no significant weather observed at this time

METAR text: VVCT 011530Z 24002KT 9999 -RA SCT015 FEW017CB BKN050 26/25 Q1010 NOSIG CB/NE
Conditions at: VVCT (CAN THO , VN) observed 1530 UTC 01 October 2022
Temperature: 26.0°C (79°F)
Dewpoint: 25.0°C (77°F) [RH = 94%]
Pressure (altimeter): 29.82 inches Hg (1010.0 mb)
Winds: from the WSW (240 degrees) at 2 MPH (2 knots; 1.0 m/s)
Visibility: 6 or more miles (10+ km)
Ceiling: 5000 feet AGL
Clouds: scattered clouds at 1500 feet AGL
few clouds at 1700 feet AGL
broken clouds at 5000 feet AGL
Weather: -RA  (light rain)

METAR text: VVCT 011500Z 26002KT 9999 SCT015 FEW017CB BKN050 26/25 Q1010 NOSIG CB/NE
Conditions at: VVCT (CAN THO , VN) observed 1500 UTC 01 October 2022
Temperature: 26.0°C (79°F)
Dewpoint: 25.0°C (77°F) [RH = 94%]
Pressure (altimeter): 29.82 inches Hg (1010.0 mb)
Winds: from the W (260 degrees) at 2 MPH (2 knots; 1.0 m/s)
Visibility: 6 or more miles (10+ km)
Ceiling: 5000 feet AGL
Clouds: scattered clouds at 1500 feet AGL
few clouds at 1700 feet AGL
broken clouds at 5000 feet AGL
Weather: no significant weather observed at this time

METAR text: VVCT 011430Z 26002KT 9999 SCT015 FEW017CB BKN050 26/25 Q1010 NOSIG CB/NE
Conditions at: VVCT (CAN THO , VN) observed 1430 UTC 01 October 2022
Temperature: 26.0°C (79°F)
Dewpoint: 25.0°C (77°F) [RH = 94%]
Pressure (altimeter): 29.82 inches Hg (1010.0 mb)
Winds: from the W (260 degrees) at 2 MPH (2 knots; 1.0 m/s)
Visibility: 6 or more miles (10+ km)
Ceiling: 5000 feet AGL
Clouds: scattered clouds at 1500 feet AGL
few clouds at 1700 feet AGL
broken clouds at 5000 feet AGL
Weather: no significant weather observed at this time

METAR text: VVCT 011400Z 24002KT 9999 SCT015 FEW017CB BKN050 26/25 Q1010 NOSIG CB/NE
Conditions at: VVCT (CAN THO , VN) observed 1400 UTC 01 October 2022
Temperature: 26.0°C (79°F)
Dewpoint: 25.0°C (77°F) [RH = 94%]
Pressure (altimeter): 29.82 inches Hg (1010.0 mb)
Winds: from the WSW (240 degrees) at 2 MPH (2 knots; 1.0 m/s)
Visibility: 6 or more miles (10+ km)
Ceiling: 5000 feet AGL
Clouds: scattered clouds at 1500 feet AGL
few clouds at 1700 feet AGL
broken clouds at 5000 feet AGL
Weather: no significant weather observed at this time

METAR text: VVCT 011330Z 25002KT 9999 SCT015 FEW017CB SCT050 26/25 Q1009 NOSIG CB/NE
Conditions at: VVCT (CAN THO , VN) observed 1330 UTC 01 October 2022
Temperature: 26.0°C (79°F)
Dewpoint: 25.0°C (77°F) [RH = 94%]
Pressure (altimeter): 29.79 inches Hg (1009.0 mb)
Winds: from the WSW (250 degrees) at 2 MPH (2 knots; 1.0 m/s)
Visibility: 6 or more miles (10+ km)
Ceiling: at least 12,000 feet AGL
Clouds: scattered clouds at 1500 feet AGL
few clouds at 1700 feet AGL
scattered clouds at 5000 feet AGL
Weather: no significant weather observed at this time

METAR text: VVCT 011300Z 24003KT 9999 SCT015 FEW017CB SCT050 26/25 Q1009 NOSIG CB/NE
Conditions at: VVCT (CAN THO , VN) observed 1300 UTC 01 October 2022
Temperature: 26.0°C (79°F)
Dewpoint: 25.0°C (77°F) [RH = 94%]
Pressure (altimeter): 29.79 inches Hg (1009.0 mb)
Winds: from the WSW (240 degrees) at 3 MPH (3 knots; 1.5 m/s)
Visibility: 6 or more miles (10+ km)
Ceiling: at least 12,000 feet AGL
Clouds: scattered clouds at 1500 feet AGL
few clouds at 1700 feet AGL
scattered clouds at 5000 feet AGL
Weather: no significant weather observed at this time

METAR text: VVCT 011230Z 25002KT 9999 SCT015 FEW017CB SCT050 26/25 Q1009 NOSIG CB/NE
Conditions at: VVCT (CAN THO , VN) observed 1230 UTC 01 October 2022
Temperature: 26.0°C (79°F)
Dewpoint: 25.0°C (77°F) [RH = 94%]
Pressure (altimeter): 29.79 inches Hg (1009.0 mb)
Winds: from the WSW (250 degrees) at 2 MPH (2 knots; 1.0 m/s)
Visibility: 6 or more miles (10+ km)
Ceiling: at least 12,000 feet AGL
Clouds: scattered clouds at 1500 feet AGL
few clouds at 1700 feet AGL
scattered clouds at 5000 feet AGL
Weather: no significant weather observed at this time

METAR text: VVCT 011200Z 25002KT 9999 SCT015 FEW017CB SCT050 27/25 Q1008 NOSIG CB/NE
Conditions at: VVCT (CAN THO , VN) observed 1200 UTC 01 October 2022
Temperature: 27.0°C (81°F)
Dewpoint: 25.0°C (77°F) [RH = 89%]
Pressure (altimeter): 29.76 inches Hg (1008.0 mb)
Winds: from the WSW (250 degrees) at 2 MPH (2 knots; 1.0 m/s)
Visibility: 6 or more miles (10+ km)
Ceiling: at least 12,000 feet AGL
Clouds: scattered clouds at 1500 feet AGL
few clouds at 1700 feet AGL
scattered clouds at 5000 feet AGL
Weather: no significant weather observed at this time

METAR text: VVCT 011130Z VRB02KT 9999 -RA SCT015 FEW017CB SCT050 27/25 Q1008 NOSIG CB/NE
Conditions at: VVCT (CAN THO , VN) observed 1130 UTC 01 October 2022
Temperature: 27.0°C (81°F)
Dewpoint: 25.0°C (77°F) [RH = 89%]
Pressure (altimeter): 29.76 inches Hg (1008.0 mb)
Winds: variable direction winds at 2 MPH (2 knots; 1.0 m/s)
Visibility: 6 or more miles (10+ km)
Ceiling: at least 12,000 feet AGL
Clouds: scattered clouds at 1500 feet AGL
few clouds at 1700 feet AGL
scattered clouds at 5000 feet AGL
Weather: -RA  (light rain)

METAR text: VVCT 011100Z 25003KT 9999 SCT015 FEW017CB SCT050 27/25 Q1008 NOSIG CB/NE
Conditions at: VVCT (CAN THO , VN) observed 1100 UTC 01 October 2022
Temperature: 27.0°C (81°F)
Dewpoint: 25.0°C (77°F) [RH = 89%]
Pressure (altimeter): 29.76 inches Hg (1008.0 mb)
Winds: from the WSW (250 degrees) at 3 MPH (3 knots; 1.5 m/s)
Visibility: 6 or more miles (10+ km)
Ceiling: at least 12,000 feet AGL
Clouds: scattered clouds at 1500 feet AGL
few clouds at 1700 feet AGL
scattered clouds at 5000 feet AGL
Weather: no significant weather observed at this time

METAR text: VVCT 011030Z VRB03KT 9999 VCSH SCT015 FEW017CB SCT050 28/25 Q1007 NOSIG CB/E/SW
Conditions at: VVCT (CAN THO , VN) observed 1030 UTC 01 October 2022
Temperature: 28.0°C (82°F)
Dewpoint: 25.0°C (77°F) [RH = 84%]
Pressure (altimeter): 29.73 inches Hg (1007.0 mb)
Winds: variable direction winds at 3 MPH (3 knots; 1.5 m/s)
Visibility: 6 or more miles (10+ km)
Ceiling: at least 12,000 feet AGL
Clouds: scattered clouds at 1500 feet AGL
few clouds at 1700 feet AGL
scattered clouds at 5000 feet AGL
Weather: VCSH  (showers in vicinity)

METAR text: VVCT 011000Z 26004KT 9999 VCSH SCT015 FEW017CB SCT050 28/24 Q1006 NOSIG CB/E/SW
Conditions at: VVCT (CAN THO , VN) observed 1000 UTC 01 October 2022
Temperature: 28.0°C (82°F)
Dewpoint: 24.0°C (75°F) [RH = 79%]
Pressure (altimeter): 29.70 inches Hg (1006.0 mb)
Winds: from the W (260 degrees) at 5 MPH (4 knots; 2.1 m/s)
Visibility: 6 or more miles (10+ km)
Ceiling: at least 12,000 feet AGL
Clouds: scattered clouds at 1500 feet AGL
few clouds at 1700 feet AGL
scattered clouds at 5000 feet AGL
Weather: VCSH  (showers in vicinity)

METAR text: VVCT 010930Z 27006KT 9999 SCT015 FEW017CB SCT050 29/24 Q1006 NOSIG CB/E/SW
Conditions at: VVCT (CAN THO , VN) observed 0930 UTC 01 October 2022
Temperature: 29.0°C (84°F)
Dewpoint: 24.0°C (75°F) [RH = 74%]
Pressure (altimeter): 29.70 inches Hg (1006.0 mb)
Winds: from the W (270 degrees) at 7 MPH (6 knots; 3.1 m/s)
Visibility: 6 or more miles (10+ km)
Ceiling: at least 12,000 feet AGL
Clouds: scattered clouds at 1500 feet AGL
few clouds at 1700 feet AGL
scattered clouds at 5000 feet AGL
Weather: no significant weather observed at this time

METAR text: VVCT 010900Z 26006KT 9999 SCT015 FEW017TCU SCT050 30/24 Q1007 NOSIG TCU/E/SW
Conditions at: VVCT (CAN THO , VN) observed 0900 UTC 01 October 2022
Temperature: 30.0°C (86°F)
Dewpoint: 24.0°C (75°F) [RH = 70%]
Pressure (altimeter): 29.73 inches Hg (1007.0 mb)
Winds: from the W (260 degrees) at 7 MPH (6 knots; 3.1 m/s)
Visibility: 6 or more miles (10+ km)
Ceiling: at least 12,000 feet AGL
Clouds: scattered clouds at 1500 feet AGL
few clouds at 1700 feet AGL
scattered clouds at 5000 feet AGL
Weather: no significant weather observed at this time

METAR text: VVCT 010830Z 27007KT 9999 SCT015 FEW017TCU SCT050 30/25 Q1006 NOSIG TCU/SW
Conditions at: VVCT (CAN THO , VN) observed 0830 UTC 01 October 2022
Temperature: 30.0°C (86°F)
Dewpoint: 25.0°C (77°F) [RH = 75%]
Pressure (altimeter): 29.70 inches Hg (1006.0 mb)
Winds: from the W (270 degrees) at 8 MPH (7 knots; 3.6 m/s)
Visibility: 6 or more miles (10+ km)
Ceiling: at least 12,000 feet AGL
Clouds: scattered clouds at 1500 feet AGL
few clouds at 1700 feet AGL
scattered clouds at 5000 feet AGL
Weather: no significant weather observed at this time

METAR text: VVCT 010800Z 26008KT 9999 SCT015 FEW017TCU SCT050 30/24 Q1007 NOSIG TCU/SW
Conditions at: VVCT (CAN THO , VN) observed 0800 UTC 01 October 2022
Temperature: 30.0°C (86°F)
Dewpoint: 24.0°C (75°F) [RH = 70%]
Pressure (altimeter): 29.73 inches Hg (1007.0 mb)
Winds: from the W (260 degrees) at 9 MPH (8 knots; 4.1 m/s)
Visibility: 6 or more miles (10+ km)
Ceiling: at least 12,000 feet AGL
Clouds: scattered clouds at 1500 feet AGL
few clouds at 1700 feet AGL
scattered clouds at 5000 feet AGL
Weather: no significant weather observed at this time

METAR text: VVCT 010730Z 25007KT 9999 SCT015 FEW017TCU SCT050 31/24 Q1007 NOSIG TCU/SW
Conditions at: VVCT (CAN THO , VN) observed 0730 UTC 01 October 2022
Temperature: 31.0°C (88°F)
Dewpoint: 24.0°C (75°F) [RH = 66%]
Pressure (altimeter): 29.73 inches Hg (1007.0 mb)
Winds: from the WSW (250 degrees) at 8 MPH (7 knots; 3.6 m/s)
Visibility: 6 or more miles (10+ km)
Ceiling: at least 12,000 feet AGL
Clouds: scattered clouds at 1500 feet AGL
few clouds at 1700 feet AGL
scattered clouds at 5000 feet AGL
Weather: no significant weather observed at this time

METAR text: VVCT 010700Z 27007KT 9999 SCT015 SCT050 31/25 Q1007 NOSIG
Conditions at: VVCT (CAN THO , VN) observed 0700 UTC 01 October 2022
Temperature: 31.0°C (88°F)
Dewpoint: 25.0°C (77°F) [RH = 71%]
Pressure (altimeter): 29.73 inches Hg (1007.0 mb)
Winds: from the W (270 degrees) at 8 MPH (7 knots; 3.6 m/s)
Visibility: 6 or more miles (10+ km)
Ceiling: at least 12,000 feet AGL
Clouds: scattered clouds at 1500 feet AGL
scattered clouds at 5000 feet AGL
Weather: no significant weather observed at this time

METAR text: VVCT 010630Z 26007KT 9999 SCT015 SCT050 31/25 Q1007 NOSIG
Conditions at: VVCT (CAN THO , VN) observed 0630 UTC 01 October 2022
Temperature: 31.0°C (88°F)
Dewpoint: 25.0°C (77°F) [RH = 71%]
Pressure (altimeter): 29.73 inches Hg (1007.0 mb)
Winds: from the W (260 degrees) at 8 MPH (7 knots; 3.6 m/s)
Visibility: 6 or more miles (10+ km)
Ceiling: at least 12,000 feet AGL
Clouds: scattered clouds at 1500 feet AGL
scattered clouds at 5000 feet AGL
Weather: no significant weather observed at this time

Forecast for: VVCT (CAN THO , VN)
Text: TAF VVCT 021700Z 0218/0318 VRB03KT 9999 SCT015 SCT040
Forecast period: 1800 UTC 02 October 2022 to 0100 UTC 03 October 2022
Forecast type: FROM: standard forecast or significant change
Winds: variable direction winds at 3 MPH (3 knots; 1.5 m/s)
Visibility: 6 or more miles (10+ km)
Ceiling: at least 12,000 feet AGL
Clouds: scattered clouds at 1500 feet AGL
scattered clouds at 4000 feet AGL
Weather: no significant weather forecast for this period
Text: BECMG 0301/0302 09010KT
Forecast period: 0100 to 1800 UTC 03 October 2022
Forecast type: BECOMING: Conditions expected to become as follows by 0200 UTC 03 October 2022
Winds: from the E (90 degrees) at 12 MPH (10 knots; 5.1 m/s)
Visibility: 6 or more miles (10+ km)
Ceiling: at least 12,000 feet AGL
Clouds: scattered clouds at 1500 feet AGL
scattered clouds at 4000 feet AGL
Weather: no significant weather forecast for this period
Text: TEMPO 0304/0309 5000 TSRA BKN012 FEW015CB
Forecast period: 0400 to 0900 UTC 03 October 2022
Forecast type: TEMPORARY: The following changes expected for less than half the time period
Visibility: 3 miles (5 km)
Ceiling: 1200 feet AGL
Clouds: broken clouds at 1200 feet AGL
few clouds at 1500 feet AGL
Weather: TSRA  (rain associated with thunderstorm(s))